sensor_id;sensor_type;location;lat;lon;timestamp;temperature;humidity
26579;DHT22;14227;47.674;19.320;2023-06-24T00:02:13;18.50;99.90
26579;DHT22;14227;47.674;19.320;2023-06-24T00:04:39;18.50;99.90
26579;DHT22;14227;47.674;19.320;2023-06-24T00:07:05;18.50;99.90
26579;DHT22;14227;47.674;19.320;2023-06-24T00:09:32;18.50;99.90
26579;DHT22;14227;47.674;19.320;2023-06-24T00:11:58;18.50;99.90
26579;DHT22;14227;47.674;19.320;2023-06-24T00:14:27;18.50;99.90
26579;DHT22;14227;47.674;19.320;2023-06-24T00:16:54;18.40;99.90
26579;DHT22;14227;47.674;19.320;2023-06-24T00:19:23;18.40;99.90
26579;DHT22;14227;47.674;19.320;2023-06-24T00:21:50;18.40;99.90
26579;DHT22;14227;47.674;19.320;2023-06-24T00:24:19;18.40;99.90
26579;DHT22;14227;47.674;19.320;2023-06-24T00:26:48;18.30;99.90
26579;DHT22;14227;47.674;19.320;2023-06-24T00:29:14;18.30;99.90
26579;DHT22;14227;47.674;19.320;2023-06-24T00:31:40;18.30;99.90
26579;DHT22;14227;47.674;19.320;2023-06-24T00:34:06;18.40;99.90
26579;DHT22;14227;47.674;19.320;2023-06-24T00:36:32;18.30;99.90
26579;DHT22;14227;47.674;19.320;2023-06-24T00:38:58;18.30;99.90
26579;DHT22;14227;47.674;19.320;2023-06-24T00:41:31;18.30;99.90
26579;DHT22;14227;47.674;19.320;2023-06-24T00:43:58;18.30;99.90
26579;DHT22;14227;47.674;19.320;2023-06-24T00:46:28;18.20;99.90
26579;DHT22;14227;47.674;19.320;2023-06-24T00:48:57;18.20;99.90
26579;DHT22;14227;47.674;19.320;2023-06-24T00:51:23;18.20;99.90
26579;DHT22;14227;47.674;19.320;2023-06-24T00:53:57;18.20;99.90
26579;DHT22;14227;47.674;19.320;2023-06-24T00:56:34;18.10;99.90
26579;DHT22;14227;47.674;19.320;2023-06-24T00:59:03;18.10;99.90
26579;DHT22;14227;47.674;19.320;2023-06-24T01:01:34;18.10;99.90
26579;DHT22;14227;47.674;19.320;2023-06-24T01:04:01;18.10;99.90
26579;DHT22;14227;47.674;19.320;2023-06-24T01:06:31;18.10;99.90
26579;DHT22;14227;47.674;19.320;2023-06-24T01:09:00;18.10;99.90
26579;DHT22;14227;47.674;19.320;2023-06-24T01:11:28;18.00;99.90
26579;DHT22;14227;47.674;19.320;2023-06-24T01:13:54;18.00;99.90
26579;DHT22;14227;47.674;19.320;2023-06-24T01:16:42;18.00;99.90
26579;DHT22;14227;47.674;19.320;2023-06-24T01:22:56;17.90;99.90
26579;DHT22;14227;47.674;19.320;2023-06-24T01:37:39;17.80;99.90
26579;DHT22;14227;47.674;19.320;2023-06-24T01:40:44;17.80;99.90
26579;DHT22;14227;47.674;19.320;2023-06-24T01:42:52;17.80;99.90
26579;DHT22;14227;47.674;19.320;2023-06-24T01:45:25;17.70;99.90
26579;DHT22;14227;47.674;19.320;2023-06-24T01:48:02;17.70;99.90
26579;DHT22;14227;47.674;19.320;2023-06-24T01:50:31;17.70;99.90
26579;DHT22;14227;47.674;19.320;2023-06-24T01:52:57;17.70;99.90
26579;DHT22;14227;47.674;19.320;2023-06-24T01:55:24;17.70;99.90
26579;DHT22;14227;47.674;19.320;2023-06-24T01:57:51;17.70;99.90
26579;DHT22;14227;47.674;19.320;2023-06-24T02:00:18;17.70;99.90
26579;DHT22;14227;47.674;19.320;2023-06-24T02:02:45;17.60;99.90
26579;DHT22;14227;47.674;19.320;2023-06-24T02:05:11;17.60;99.70
26579;DHT22;14227;47.674;19.320;2023-06-24T02:07:39;17.60;99.90
26579;DHT22;14227;47.674;19.320;2023-06-24T02:10:07;17.60;99.80
26579;DHT22;14227;47.674;19.320;2023-06-24T02:12:35;17.60;99.60
26579;DHT22;14227;47.674;19.320;2023-06-24T02:15:02;17.60;99.50
26579;DHT22;14227;47.674;19.320;2023-06-24T02:17:30;17.50;99.20
26579;DHT22;14227;47.674;19.320;2023-06-24T02:19:56;17.50;98.90
26579;DHT22;14227;47.674;19.320;2023-06-24T02:22:23;17.50;99.10
26579;DHT22;14227;47.674;19.320;2023-06-24T02:24:49;17.50;99.00
26579;DHT22;14227;47.674;19.320;2023-06-24T02:27:16;17.40;98.80
26579;DHT22;14227;47.674;19.320;2023-06-24T02:29:42;17.40;98.80
26579;DHT22;14227;47.674;19.320;2023-06-24T02:32:09;17.40;98.70
26579;DHT22;14227;47.674;19.320;2023-06-24T02:34:35;17.40;98.50
26579;DHT22;14227;47.674;19.320;2023-06-24T02:37:01;17.40;98.30
26579;DHT22;14227;47.674;19.320;2023-06-24T02:39:27;17.40;98.00
26579;DHT22;14227;47.674;19.320;2023-06-24T02:41:53;17.30;97.90
26579;DHT22;14227;47.674;19.320;2023-06-24T02:44:19;17.30;97.90
26579;DHT22;14227;47.674;19.320;2023-06-24T02:46:46;17.30;97.90
26579;DHT22;14227;47.674;19.320;2023-06-24T02:49:15;17.30;97.80
26579;DHT22;14227;47.674;19.320;2023-06-24T02:51:41;17.20;97.90
26579;DHT22;14227;47.674;19.320;2023-06-24T02:54:08;17.20;97.90
26579;DHT22;14227;47.674;19.320;2023-06-24T02:56:35;17.20;97.50
26579;DHT22;14227;47.674;19.320;2023-06-24T02:59:07;17.10;97.40
26579;DHT22;14227;47.674;19.320;2023-06-24T03:01:34;17.10;97.70
26579;DHT22;14227;47.674;19.320;2023-06-24T03:04:04;17.10;97.50
26579;DHT22;14227;47.674;19.320;2023-06-24T03:06:30;17.10;97.90
26579;DHT22;14227;47.674;19.320;2023-06-24T03:08:57;17.10;97.80
26579;DHT22;14227;47.674;19.320;2023-06-24T03:11:25;17.10;97.90
26579;DHT22;14227;47.674;19.320;2023-06-24T03:13:51;17.10;97.80
26579;DHT22;14227;47.674;19.320;2023-06-24T03:16:17;17.10;97.90
26579;DHT22;14227;47.674;19.320;2023-06-24T03:18:43;17.10;98.00
26579;DHT22;14227;47.674;19.320;2023-06-24T03:21:09;17.10;98.00
26579;DHT22;14227;47.674;19.320;2023-06-24T03:23:35;17.10;98.10
26579;DHT22;14227;47.674;19.320;2023-06-24T03:26:01;17.10;98.00
26579;DHT22;14227;47.674;19.320;2023-06-24T03:28:31;17.10;97.80
26579;DHT22;14227;47.674;19.320;2023-06-24T03:31:01;17.10;97.80
26579;DHT22;14227;47.674;19.320;2023-06-24T03:33:26;17.10;97.90
26579;DHT22;14227;47.674;19.320;2023-06-24T03:35:53;17.10;97.90
26579;DHT22;14227;47.674;19.320;2023-06-24T03:38:20;17.10;97.80
26579;DHT22;14227;47.674;19.320;2023-06-24T03:40:46;17.00;97.80
26579;DHT22;14227;47.674;19.320;2023-06-24T03:43:12;17.00;97.80
26579;DHT22;14227;47.674;19.320;2023-06-24T03:45:38;17.00;97.80
26579;DHT22;14227;47.674;19.320;2023-06-24T03:48:04;17.00;97.80
26579;DHT22;14227;47.674;19.320;2023-06-24T03:50:33;17.00;97.80
26579;DHT22;14227;47.674;19.320;2023-06-24T03:52:59;17.00;97.80
26579;DHT22;14227;47.674;19.320;2023-06-24T03:55:25;17.00;97.80
26579;DHT22;14227;47.674;19.320;2023-06-24T03:57:51;17.00;97.80
26579;DHT22;14227;47.674;19.320;2023-06-24T04:00:17;17.00;97.60
26579;DHT22;14227;47.674;19.320;2023-06-24T04:02:46;17.00;97.80
26579;DHT22;14227;47.674;19.320;2023-06-24T04:05:12;17.00;97.80
26579;DHT22;14227;47.674;19.320;2023-06-24T04:07:38;17.10;97.80
26579;DHT22;14227;47.674;19.320;2023-06-24T04:10:12;17.00;97.80
26579;DHT22;14227;47.674;19.320;2023-06-24T04:12:39;17.10;98.10
26579;DHT22;14227;47.674;19.320;2023-06-24T04:15:06;17.20;98.20
26579;DHT22;14227;47.674;19.320;2023-06-24T04:17:32;17.20;98.20
26579;DHT22;14227;47.674;19.320;2023-06-24T04:19:58;17.20;98.20
26579;DHT22;14227;47.674;19.320;2023-06-24T04:22:25;17.30;97.90
26579;DHT22;14227;47.674;19.320;2023-06-24T04:24:51;17.20;97.90
26579;DHT22;14227;47.674;19.320;2023-06-24T04:27:17;17.30;97.40
26579;DHT22;14227;47.674;19.320;2023-06-24T04:29:42;17.40;97.60
26579;DHT22;14227;47.674;19.320;2023-06-24T04:32:08;17.50;97.60
26579;DHT22;14227;47.674;19.320;2023-06-24T04:34:34;17.50;97.80
26579;DHT22;14227;47.674;19.320;2023-06-24T04:36:59;17.60;97.20
26579;DHT22;14227;47.674;19.320;2023-06-24T04:39:25;17.60;97.40
26579;DHT22;14227;47.674;19.320;2023-06-24T04:41:51;17.70;96.40
26579;DHT22;14227;47.674;19.320;2023-06-24T04:44:16;17.70;96.60
26579;DHT22;14227;47.674;19.320;2023-06-24T04:46:42;17.70;95.70
26579;DHT22;14227;47.674;19.320;2023-06-24T04:49:08;17.80;95.80
26579;DHT22;14227;47.674;19.320;2023-06-24T04:51:33;17.80;95.70
26579;DHT22;14227;47.674;19.320;2023-06-24T04:53:59;17.80;96.00
26579;DHT22;14227;47.674;19.320;2023-06-24T04:56:27;17.90;95.20
26579;DHT22;14227;47.674;19.320;2023-06-24T04:58:53;18.00;95.60
26579;DHT22;14227;47.674;19.320;2023-06-24T05:01:19;18.00;95.70
26579;DHT22;14227;47.674;19.320;2023-06-24T05:03:44;18.10;95.00
26579;DHT22;14227;47.674;19.320;2023-06-24T05:06:10;18.10;94.50
26579;DHT22;14227;47.674;19.320;2023-06-24T05:08:35;18.10;94.80
26579;DHT22;14227;47.674;19.320;2023-06-24T05:11:01;18.20;94.50
26579;DHT22;14227;47.674;19.320;2023-06-24T05:13:27;18.20;93.70
26579;DHT22;14227;47.674;19.320;2023-06-24T05:15:53;18.30;95.00
26579;DHT22;14227;47.674;19.320;2023-06-24T05:18:19;18.20;92.70
26579;DHT22;14227;47.674;19.320;2023-06-24T05:20:45;18.30;92.90
26579;DHT22;14227;47.674;19.320;2023-06-24T05:23:10;18.30;93.00
26579;DHT22;14227;47.674;19.320;2023-06-24T05:25:36;18.40;93.40
26579;DHT22;14227;47.674;19.320;2023-06-24T05:28:02;18.40;93.30
26579;DHT22;14227;47.674;19.320;2023-06-24T05:30:27;18.50;94.60
26579;DHT22;14227;47.674;19.320;2023-06-24T05:32:53;18.60;94.70
26579;DHT22;14227;47.674;19.320;2023-06-24T05:35:19;18.70;94.30
26579;DHT22;14227;47.674;19.320;2023-06-24T05:37:45;18.80;94.70
26579;DHT22;14227;47.674;19.320;2023-06-24T05:40:11;19.10;97.60
26579;DHT22;14227;47.674;19.320;2023-06-24T05:42:38;19.40;99.90
26579;DHT22;14227;47.674;19.320;2023-06-24T05:45:04;19.90;99.90
26579;DHT22;14227;47.674;19.320;2023-06-24T05:47:31;20.40;99.90
26579;DHT22;14227;47.674;19.320;2023-06-24T05:49:57;20.90;99.90
26579;DHT22;14227;47.674;19.320;2023-06-24T05:52:23;21.20;99.90
26579;DHT22;14227;47.674;19.320;2023-06-24T05:54:49;21.60;99.90
26579;DHT22;14227;47.674;19.320;2023-06-24T05:57:15;21.90;99.80
26579;DHT22;14227;47.674;19.320;2023-06-24T05:59:41;22.20;94.20
26579;DHT22;14227;47.674;19.320;2023-06-24T06:02:07;22.60;94.70
26579;DHT22;14227;47.674;19.320;2023-06-24T06:04:32;22.90;88.90
26579;DHT22;14227;47.674;19.320;2023-06-24T06:06:58;23.00;85.50
26579;DHT22;14227;47.674;19.320;2023-06-24T06:09:24;23.20;84.90
26579;DHT22;14227;47.674;19.320;2023-06-24T06:11:49;23.40;82.20
26579;DHT22;14227;47.674;19.320;2023-06-24T06:14:15;23.50;79.80
26579;DHT22;14227;47.674;19.320;2023-06-24T06:16:41;23.70;73.50
26579;DHT22;14227;47.674;19.320;2023-06-24T06:19:06;23.70;73.10
26579;DHT22;14227;47.674;19.320;2023-06-24T06:21:32;23.80;71.10
26579;DHT22;14227;47.674;19.320;2023-06-24T06:23:58;23.80;74.60
26579;DHT22;14227;47.674;19.320;2023-06-24T06:26:24;23.90;70.00
26579;DHT22;14227;47.674;19.320;2023-06-24T06:28:49;24.10;70.10
26579;DHT22;14227;47.674;19.320;2023-06-24T06:31:16;24.20;66.60
26579;DHT22;14227;47.674;19.320;2023-06-24T06:33:43;24.40;66.80
26579;DHT22;14227;47.674;19.320;2023-06-24T06:36:08;24.50;66.00
26579;DHT22;14227;47.674;19.320;2023-06-24T06:38:34;24.60;62.90
26579;DHT22;14227;47.674;19.320;2023-06-24T06:41:00;24.50;62.00
26579;DHT22;14227;47.674;19.320;2023-06-24T06:43:26;24.50;60.00
26579;DHT22;14227;47.674;19.320;2023-06-24T06:45:52;24.50;59.30
26579;DHT22;14227;47.674;19.320;2023-06-24T06:48:17;24.40;57.30
26579;DHT22;14227;47.674;19.320;2023-06-24T06:50:44;24.30;59.10
26579;DHT22;14227;47.674;19.320;2023-06-24T06:53:10;24.30;55.90
26579;DHT22;14227;47.674;19.320;2023-06-24T06:55:36;24.20;57.20
26579;DHT22;14227;47.674;19.320;2023-06-24T06:58:03;24.20;56.40
26579;DHT22;14227;47.674;19.320;2023-06-24T07:00:28;24.20;56.00
26579;DHT22;14227;47.674;19.320;2023-06-24T07:02:54;24.40;56.60
26579;DHT22;14227;47.674;19.320;2023-06-24T07:05:20;24.60;59.40
26579;DHT22;14227;47.674;19.320;2023-06-24T07:07:46;25.00;58.00
26579;DHT22;14227;47.674;19.320;2023-06-24T07:10:12;25.40;57.50
26579;DHT22;14227;47.674;19.320;2023-06-24T07:12:39;25.90;54.80
26579;DHT22;14227;47.674;19.320;2023-06-24T07:15:05;26.10;52.40
26579;DHT22;14227;47.674;19.320;2023-06-24T07:17:31;26.20;51.40
26579;DHT22;14227;47.674;19.320;2023-06-24T07:19:56;26.40;52.10
26579;DHT22;14227;47.674;19.320;2023-06-24T07:22:22;26.50;51.70
26579;DHT22;14227;47.674;19.320;2023-06-24T07:24:48;26.70;51.20
26579;DHT22;14227;47.674;19.320;2023-06-24T07:27:13;27.10;49.20
26579;DHT22;14227;47.674;19.320;2023-06-24T07:29:39;27.50;44.70
26579;DHT22;14227;47.674;19.320;2023-06-24T07:32:07;27.80;43.40
26579;DHT22;14227;47.674;19.320;2023-06-24T07:34:33;28.10;41.50
26579;DHT22;14227;47.674;19.320;2023-06-24T07:36:59;28.50;43.40
26579;DHT22;14227;47.674;19.320;2023-06-24T07:39:24;28.90;40.40
26579;DHT22;14227;47.674;19.320;2023-06-24T07:41:50;29.10;38.70
26579;DHT22;14227;47.674;19.320;2023-06-24T07:44:18;29.40;39.00
26579;DHT22;14227;47.674;19.320;2023-06-24T07:46:47;29.70;38.80
26579;DHT22;14227;47.674;19.320;2023-06-24T07:49:20;30.00;35.90
26579;DHT22;14227;47.674;19.320;2023-06-24T07:51:49;30.20;35.60
26579;DHT22;14227;47.674;19.320;2023-06-24T07:54:15;30.50;36.30
26579;DHT22;14227;47.674;19.320;2023-06-24T07:56:41;30.80;33.70
26579;DHT22;14227;47.674;19.320;2023-06-24T07:59:07;31.00;34.20
26579;DHT22;14227;47.674;19.320;2023-06-24T08:01:33;31.20;34.70
26579;DHT22;14227;47.674;19.320;2023-06-24T08:03:59;31.50;33.10
26579;DHT22;14227;47.674;19.320;2023-06-24T08:06:25;31.80;34.30
26579;DHT22;14227;47.674;19.320;2023-06-24T08:08:51;32.10;32.50
26579;DHT22;14227;47.674;19.320;2023-06-24T08:11:17;32.50;32.10
26579;DHT22;14227;47.674;19.320;2023-06-24T08:13:43;32.70;30.70
26579;DHT22;14227;47.674;19.320;2023-06-24T08:16:09;33.10;29.80
26579;DHT22;14227;47.674;19.320;2023-06-24T08:18:37;33.40;29.20
26579;DHT22;14227;47.674;19.320;2023-06-24T08:21:02;33.70;28.10
26579;DHT22;14227;47.674;19.320;2023-06-24T08:23:28;33.80;27.80
26579;DHT22;14227;47.674;19.320;2023-06-24T08:25:54;34.00;28.40
26579;DHT22;14227;47.674;19.320;2023-06-24T08:28:20;34.10;27.40
26579;DHT22;14227;47.674;19.320;2023-06-24T08:30:48;34.40;27.60
26579;DHT22;14227;47.674;19.320;2023-06-24T08:33:14;34.60;27.00
26579;DHT22;14227;47.674;19.320;2023-06-24T08:35:39;34.80;26.90
26579;DHT22;14227;47.674;19.320;2023-06-24T08:38:05;35.00;26.30
26579;DHT22;14227;47.674;19.320;2023-06-24T08:40:31;35.20;26.90
26579;DHT22;14227;47.674;19.320;2023-06-24T08:42:56;35.50;26.40
26579;DHT22;14227;47.674;19.320;2023-06-24T08:45:23;35.80;25.90
26579;DHT22;14227;47.674;19.320;2023-06-24T08:47:49;36.00;26.10
26579;DHT22;14227;47.674;19.320;2023-06-24T08:50:18;36.30;25.30
26579;DHT22;14227;47.674;19.320;2023-06-24T08:52:51;36.60;24.90
26579;DHT22;14227;47.674;19.320;2023-06-24T08:55:22;37.00;25.10
26579;DHT22;14227;47.674;19.320;2023-06-24T08:57:51;37.40;24.80
26579;DHT22;14227;47.674;19.320;2023-06-24T09:00:17;37.50;23.60
26579;DHT22;14227;47.674;19.320;2023-06-24T09:02:43;37.50;23.60
26579;DHT22;14227;47.674;19.320;2023-06-24T09:05:16;37.70;24.30
26579;DHT22;14227;47.674;19.320;2023-06-24T09:07:45;38.00;23.70
26579;DHT22;14227;47.674;19.320;2023-06-24T09:10:32;38.10;23.00
26579;DHT22;14227;47.674;19.320;2023-06-24T09:13:01;38.10;26.90
26579;DHT22;14227;47.674;19.320;2023-06-24T09:15:34;38.10;23.80
26579;DHT22;14227;47.674;19.320;2023-06-24T09:18:00;38.10;22.40
26579;DHT22;14227;47.674;19.320;2023-06-24T09:20:35;38.20;23.00
26579;DHT22;14227;47.674;19.320;2023-06-24T09:23:06;38.20;22.60
26579;DHT22;14227;47.674;19.320;2023-06-24T09:25:32;38.10;22.70
26579;DHT22;14227;47.674;19.320;2023-06-24T09:28:00;37.90;22.80
26579;DHT22;14227;47.674;19.320;2023-06-24T09:30:26;37.80;22.40
26579;DHT22;14227;47.674;19.320;2023-06-24T09:32:53;37.80;21.90
26579;DHT22;14227;47.674;19.320;2023-06-24T09:35:23;37.70;22.80
26579;DHT22;14227;47.674;19.320;2023-06-24T09:37:53;37.90;23.70
26579;DHT22;14227;47.674;19.320;2023-06-24T09:40:20;38.00;22.50
26579;DHT22;14227;47.674;19.320;2023-06-24T09:42:50;37.70;22.00
26579;DHT22;14227;47.674;19.320;2023-06-24T09:45:31;37.30;24.20
26579;DHT22;14227;47.674;19.320;2023-06-24T09:47:57;37.10;27.50
26579;DHT22;14227;47.674;19.320;2023-06-24T09:50:23;36.80;24.10
26579;DHT22;14227;47.674;19.320;2023-06-24T09:52:50;36.60;24.00
26579;DHT22;14227;47.674;19.320;2023-06-24T09:55:17;36.50;24.20
26579;DHT22;14227;47.674;19.320;2023-06-24T09:57:49;36.40;24.40
26579;DHT22;14227;47.674;19.320;2023-06-24T10:00:18;36.30;25.70
26579;DHT22;14227;47.674;19.320;2023-06-24T10:02:45;36.10;25.30
26579;DHT22;14227;47.674;19.320;2023-06-24T10:05:15;36.00;25.50
26579;DHT22;14227;47.674;19.320;2023-06-24T10:07:41;35.90;25.50
26579;DHT22;14227;47.674;19.320;2023-06-24T10:10:08;36.00;26.00
26579;DHT22;14227;47.674;19.320;2023-06-24T10:12:35;36.00;25.30
26579;DHT22;14227;47.674;19.320;2023-06-24T10:15:02;36.00;25.10
26579;DHT22;14227;47.674;19.320;2023-06-24T10:17:28;36.20;25.00
26579;DHT22;14227;47.674;19.320;2023-06-24T10:19:54;36.60;24.80
26579;DHT22;14227;47.674;19.320;2023-06-24T10:22:24;37.30;24.40
26579;DHT22;14227;47.674;19.320;2023-06-24T10:24:51;38.10;22.80
26579;DHT22;14227;47.674;19.320;2023-06-24T10:27:20;39.00;21.10
26579;DHT22;14227;47.674;19.320;2023-06-24T10:29:54;39.70;21.00
26579;DHT22;14227;47.674;19.320;2023-06-24T10:32:23;40.40;20.60
26579;DHT22;14227;47.674;19.320;2023-06-24T10:34:56;40.90;18.80
26579;DHT22;14227;47.674;19.320;2023-06-24T10:37:37;41.10;18.50
26579;DHT22;14227;47.674;19.320;2023-06-24T10:40:03;41.50;22.00
26579;DHT22;14227;47.674;19.320;2023-06-24T10:45:35;42.70;20.70
26579;DHT22;14227;47.674;19.320;2023-06-24T10:48:05;43.10;17.30
26579;DHT22;14227;47.674;19.320;2023-06-24T10:50:30;43.50;17.10
26579;DHT22;14227;47.674;19.320;2023-06-24T10:52:58;43.90;15.70
26579;DHT22;14227;47.674;19.320;2023-06-24T10:55:26;44.30;14.90
26579;DHT22;14227;47.674;19.320;2023-06-24T10:57:52;44.60;15.10
26579;DHT22;14227;47.674;19.320;2023-06-24T11:00:20;44.20;15.20
26579;DHT22;14227;47.674;19.320;2023-06-24T11:02:46;44.20;14.10
26579;DHT22;14227;47.674;19.320;2023-06-24T11:05:15;44.20;14.60
26579;DHT22;14227;47.674;19.320;2023-06-24T11:07:41;44.60;15.60
26579;DHT22;14227;47.674;19.320;2023-06-24T11:10:09;44.50;15.00
26579;DHT22;14227;47.674;19.320;2023-06-24T11:12:36;43.80;14.50
26579;DHT22;14227;47.674;19.320;2023-06-24T11:15:07;43.40;16.00
26579;DHT22;14227;47.674;19.320;2023-06-24T11:20:09;43.70;14.80
26579;DHT22;14227;47.674;19.320;2023-06-24T11:22:35;44.00;13.80
26579;DHT22;14227;47.674;19.320;2023-06-24T11:25:01;43.90;13.80
26579;DHT22;14227;47.674;19.320;2023-06-24T11:27:27;43.30;13.50
26579;DHT22;14227;47.674;19.320;2023-06-24T11:29:55;43.20;15.00
26579;DHT22;14227;47.674;19.320;2023-06-24T11:32:21;43.90;14.00
26579;DHT22;14227;47.674;19.320;2023-06-24T11:34:47;44.40;13.70
26579;DHT22;14227;47.674;19.320;2023-06-24T11:37:15;44.00;13.50
26579;DHT22;14227;47.674;19.320;2023-06-24T11:39:42;44.00;14.10
26579;DHT22;14227;47.674;19.320;2023-06-24T11:42:08;44.60;13.80
26579;DHT22;14227;47.674;19.320;2023-06-24T11:44:35;45.30;13.30
26579;DHT22;14227;47.674;19.320;2023-06-24T11:47:06;45.90;11.60
26579;DHT22;14227;47.674;19.320;2023-06-24T11:49:32;46.40;11.90
26579;DHT22;14227;47.674;19.320;2023-06-24T11:52:12;46.10;11.00
26579;DHT22;14227;47.674;19.320;2023-06-24T11:54:41;45.30;10.90
26579;DHT22;14227;47.674;19.320;2023-06-24T11:57:08;44.90;12.80
26579;DHT22;14227;47.674;19.320;2023-06-24T11:59:33;45.10;12.50
26579;DHT22;14227;47.674;19.320;2023-06-24T12:01:59;45.60;11.10
26579;DHT22;14227;47.674;19.320;2023-06-24T12:04:30;46.20;11.10
26579;DHT22;14227;47.674;19.320;2023-06-24T12:06:56;46.60;10.30
26579;DHT22;14227;47.674;19.320;2023-06-24T12:09:22;46.80;10.70
26579;DHT22;14227;47.674;19.320;2023-06-24T12:11:48;46.40;11.20
26579;DHT22;14227;47.674;19.320;2023-06-24T12:14:13;46.10;11.00
26579;DHT22;14227;47.674;19.320;2023-06-24T12:16:42;46.20;10.80
26579;DHT22;14227;47.674;19.320;2023-06-24T12:19:08;46.20;10.60
26579;DHT22;14227;47.674;19.320;2023-06-24T12:21:34;45.60;11.30
26579;DHT22;14227;47.674;19.320;2023-06-24T12:24:01;45.50;11.80
26579;DHT22;14227;47.674;19.320;2023-06-24T12:26:27;46.00;11.70
26579;DHT22;14227;47.674;19.320;2023-06-24T12:28:56;46.40;10.40
26579;DHT22;14227;47.674;19.320;2023-06-24T12:31:25;46.60;11.60
26579;DHT22;14227;47.674;19.320;2023-06-24T12:33:51;46.20;10.20
26579;DHT22;14227;47.674;19.320;2023-06-24T12:36:18;45.60;11.20
26579;DHT22;14227;47.674;19.320;2023-06-24T12:38:44;45.60;11.10
26579;DHT22;14227;47.674;19.320;2023-06-24T12:41:10;45.20;11.50
26579;DHT22;14227;47.674;19.320;2023-06-24T12:43:35;45.00;12.40
26579;DHT22;14227;47.674;19.320;2023-06-24T12:46:01;45.30;11.30
26579;DHT22;14227;47.674;19.320;2023-06-24T12:48:27;45.10;12.40
26579;DHT22;14227;47.674;19.320;2023-06-24T12:50:52;44.70;12.10
26579;DHT22;14227;47.674;19.320;2023-06-24T12:53:19;44.90;12.60
26579;DHT22;14227;47.674;19.320;2023-06-24T12:55:44;45.40;12.20
26579;DHT22;14227;47.674;19.320;2023-06-24T12:58:10;45.80;12.00
26579;DHT22;14227;47.674;19.320;2023-06-24T13:00:36;46.30;10.60
26579;DHT22;14227;47.674;19.320;2023-06-24T13:03:01;46.50;10.70
26579;DHT22;14227;47.674;19.320;2023-06-24T13:05:28;45.70;10.60
26579;DHT22;14227;47.674;19.320;2023-06-24T13:07:53;45.50;10.60
26579;DHT22;14227;47.674;19.320;2023-06-24T13:10:20;45.70;10.60
26579;DHT22;14227;47.674;19.320;2023-06-24T13:12:46;45.40;10.90
26579;DHT22;14227;47.674;19.320;2023-06-24T13:15:11;44.40;12.00
26579;DHT22;14227;47.674;19.320;2023-06-24T13:17:37;44.00;13.40
26579;DHT22;14227;47.674;19.320;2023-06-24T13:20:03;44.40;12.10
26579;DHT22;14227;47.674;19.320;2023-06-24T13:22:30;44.80;12.20
26579;DHT22;14227;47.674;19.320;2023-06-24T13:24:56;45.20;11.70
26579;DHT22;14227;47.674;19.320;2023-06-24T13:27:22;45.70;11.20
26579;DHT22;14227;47.674;19.320;2023-06-24T13:29:48;45.90;11.00
26579;DHT22;14227;47.674;19.320;2023-06-24T13:32:13;45.80;11.20
26579;DHT22;14227;47.674;19.320;2023-06-24T13:34:39;45.60;11.30
26579;DHT22;14227;47.674;19.320;2023-06-24T13:37:05;45.60;10.80
26579;DHT22;14227;47.674;19.320;2023-06-24T13:39:31;45.70;10.50
26579;DHT22;14227;47.674;19.320;2023-06-24T13:41:58;45.90;11.30
26579;DHT22;14227;47.674;19.320;2023-06-24T13:44:24;46.20;10.50
26579;DHT22;14227;47.674;19.320;2023-06-24T13:46:50;46.50;10.60
26579;DHT22;14227;47.674;19.320;2023-06-24T13:49:15;46.70;10.30
26579;DHT22;14227;47.674;19.320;2023-06-24T13:51:41;46.90;10.40
26579;DHT22;14227;47.674;19.320;2023-06-24T13:54:08;46.80;9.70
26579;DHT22;14227;47.674;19.320;2023-06-24T13:56:33;46.80;9.90
26579;DHT22;14227;47.674;19.320;2023-06-24T13:58:59;47.00;10.00
26579;DHT22;14227;47.674;19.320;2023-06-24T14:01:25;47.20;9.90
26579;DHT22;14227;47.674;19.320;2023-06-24T14:03:54;47.00;9.50
26579;DHT22;14227;47.674;19.320;2023-06-24T14:06:22;46.70;9.30
26579;DHT22;14227;47.674;19.320;2023-06-24T14:08:49;46.80;10.20
26579;DHT22;14227;47.674;19.320;2023-06-24T14:11:15;46.80;10.40
26579;DHT22;14227;47.674;19.320;2023-06-24T14:13:41;46.80;9.90
26579;DHT22;14227;47.674;19.320;2023-06-24T14:16:08;46.70;9.60
26579;DHT22;14227;47.674;19.320;2023-06-24T14:18:34;46.60;9.60
26579;DHT22;14227;47.674;19.320;2023-06-24T14:21:01;46.10;9.50
26579;DHT22;14227;47.674;19.320;2023-06-24T14:23:31;45.90;10.70
26579;DHT22;14227;47.674;19.320;2023-06-24T14:25:58;45.90;11.10
26579;DHT22;14227;47.674;19.320;2023-06-24T14:28:25;45.90;9.90
26579;DHT22;14227;47.674;19.320;2023-06-24T14:30:51;46.10;10.40
26579;DHT22;14227;47.674;19.320;2023-06-24T14:33:17;46.20;10.20
26579;DHT22;14227;47.674;19.320;2023-06-24T14:35:43;46.30;10.20
26579;DHT22;14227;47.674;19.320;2023-06-24T14:38:09;46.20;9.70
26579;DHT22;14227;47.674;19.320;2023-06-24T14:40:35;46.30;9.80
26579;DHT22;14227;47.674;19.320;2023-06-24T14:43:01;46.20;10.00
26579;DHT22;14227;47.674;19.320;2023-06-24T14:45:27;46.00;10.40
26579;DHT22;14227;47.674;19.320;2023-06-24T14:47:53;45.60;10.30
26579;DHT22;14227;47.674;19.320;2023-06-24T14:50:18;44.70;11.30
26579;DHT22;14227;47.674;19.320;2023-06-24T14:52:44;43.70;12.70
26579;DHT22;14227;47.674;19.320;2023-06-24T14:55:10;43.60;12.50
26579;DHT22;14227;47.674;19.320;2023-06-24T14:57:36;43.60;12.50
26579;DHT22;14227;47.674;19.320;2023-06-24T15:00:06;43.80;12.70
26579;DHT22;14227;47.674;19.320;2023-06-24T15:02:33;44.00;13.40
26579;DHT22;14227;47.674;19.320;2023-06-24T15:04:58;44.20;12.10
26579;DHT22;14227;47.674;19.320;2023-06-24T15:07:24;44.00;11.50
26579;DHT22;14227;47.674;19.320;2023-06-24T15:09:50;43.90;11.70
26579;DHT22;14227;47.674;19.320;2023-06-24T15:12:15;43.80;12.30
26579;DHT22;14227;47.674;19.320;2023-06-24T15:14:41;43.60;12.40
26579;DHT22;14227;47.674;19.320;2023-06-24T15:17:08;43.40;12.50
26579;DHT22;14227;47.674;19.320;2023-06-24T15:19:34;43.20;13.00
26579;DHT22;14227;47.674;19.320;2023-06-24T15:22:00;43.00;12.90
26579;DHT22;14227;47.674;19.320;2023-06-24T15:24:25;42.80;12.80
26579;DHT22;14227;47.674;19.320;2023-06-24T15:26:51;42.80;12.90
26579;DHT22;14227;47.674;19.320;2023-06-24T15:29:16;42.70;12.70
26579;DHT22;14227;47.674;19.320;2023-06-24T15:31:42;42.50;13.80
26579;DHT22;14227;47.674;19.320;2023-06-24T15:34:10;42.50;13.40
26579;DHT22;14227;47.674;19.320;2023-06-24T15:36:36;42.30;13.40
26579;DHT22;14227;47.674;19.320;2023-06-24T15:39:02;42.10;14.20